Time;durP1;ratioP1;P1;durP2;ratioP2;P2;SDS_P1;SDS_P2;PMS_P1;PMS_P2;Temp;Humidity;BMP_temperature;BMP_pressure;BME280_temperature;BME280_humidity;BME280_pressure;Samples;Min_cycle;Max_cycle;Signal;HPM_P1;HPM_P2
2021/12/12 00:00:51;;;;;;;3.25;1.45;;;;;;;-143.85;100.00;70650.75;5094279;28;20020;-74
2021/12/12 00:03:35;;;;;;;1.90;1.80;;;;;;;-143.85;100.00;70650.75;5094457;28;20028;-75
2021/12/12 00:06:11;;;;;;;1.02;1.02;;;;;;;-143.85;100.00;70650.75;5099037;28;20513;-75
2021/12/12 00:08:40;;;;;;;3.65;3.30;;;;;;;-143.85;100.00;70650.75;5114298;28;20020;-74
2021/12/12 00:11:09;;;;;;;1.17;0.63;;;;;;;-143.85;100.00;70650.75;5114396;28;20030;-75
2021/12/12 00:13:43;;;;;;;2.35;1.02;;;;;;;-143.85;100.00;70650.75;5115029;28;20023;-75
2021/12/12 00:16:08;;;;;;;0.40;0.40;;;;;;;-143.85;100.00;70650.75;5114515;28;20038;-75
2021/12/12 00:18:35;;;;;;;1.05;0.80;;;;;;;-143.85;100.00;70650.75;5114396;28;20024;-76
2021/12/12 00:21:01;;;;;;;1.63;1.52;;;;;;;-143.85;100.00;70650.75;5114338;28;20043;-75
2021/12/12 00:23:26;;;;;;;1.52;1.27;;;;;;;-143.85;100.00;70650.75;5114564;28;20027;-75
2021/12/12 00:25:54;;;;;;;2.50;1.55;;;;;;;-143.85;100.00;70650.75;5114564;28;20075;-78
2021/12/12 00:28:21;;;;;;;1.05;1.05;;;;;;;-143.85;100.00;70650.75;5114493;28;20023;-78
2021/12/12 00:30:50;;;;;;;8.65;3.25;;;;;;;-143.85;100.00;70650.75;5114364;28;20051;-76
2021/12/12 00:33:17;;;;;;;2.05;1.85;;;;;;;-143.85;100.00;70650.75;5114572;28;20023;-76
2021/12/12 00:35:43;;;;;;;0.60;0.60;;;;;;;-143.85;100.00;70650.75;5114356;28;20050;-76
2021/12/12 00:38:15;;;;;;;0.55;0.55;;;;;;;-143.85;100.00;70650.75;5114736;27;20114;-76
2021/12/12 00:40:44;;;;;;;0.85;0.77;;;;;;;-143.85;100.00;70650.75;5103276;27;20051;-79
2021/12/12 00:43:18;;;;;;;0.77;0.77;;;;;;;-143.85;100.00;70650.75;5117832;27;20027;-76
2021/12/12 00:45:44;;;;;;;1.88;0.85;;;;;;;-143.85;100.00;70650.75;5118118;27;20497;-77
2021/12/12 00:48:10;;;;;;;0.38;0.38;;;;;;;-143.85;100.00;70650.75;5118066;27;20027;-76
2021/12/12 00:50:39;;;;;;;4.07;0.55;;;;;;;-143.85;100.00;70650.75;5117933;27;20027;-78
2021/12/12 00:53:08;;;;;;;1.45;0.40;;;;;;;-143.85;100.00;70650.75;5117802;27;20027;-76
2021/12/12 00:55:38;;;;;;;1.10;0.98;;;;;;;-143.85;100.00;70650.75;5117810;27;20095;-75
2021/12/12 00:58:09;;;;;;;0.70;0.50;;;;;;;-143.85;100.00;70650.75;5117802;27;20027;-75
2021/12/12 01:00:43;;;;;;;0.52;0.52;;;;;;;-143.85;100.00;70650.75;5118140;27;20483;-74
2021/12/12 01:03:11;;;;;;;0.57;0.57;;;;;;;-143.85;100.00;70650.75;5118063;27;20603;-76
2021/12/12 01:05:38;;;;;;;0.20;0.20;;;;;;;-143.85;100.00;70650.75;5117515;27;20027;-75
2021/12/12 01:08:06;;;;;;;0.68;0.68;;;;;;;-143.85;100.00;70650.75;5118204;27;20023;-77
2021/12/12 01:10:42;;;;;;;0.10;0.10;;;;;;;-143.85;100.00;70650.75;5117428;27;20143;-78
2021/12/12 01:13:08;;;;;;;0.60;0.52;;;;;;;-143.85;100.00;70650.75;5117826;27;20371;-75
2021/12/12 01:15:48;;;;;;;0.20;0.20;;;;;;;-143.85;100.00;70650.75;5117269;27;20031;-76
2021/12/12 01:18:17;;;;;;;0.80;0.32;;;;;;;-143.85;100.00;70650.75;5117358;27;20023;-76
2021/12/12 01:20:59;;;;;;;0.65;0.60;;;;;;;-143.85;100.00;70650.75;5117249;27;20035;-79
2021/12/12 01:23:31;;;;;;;0.20;0.20;;;;;;;-143.85;100.00;70650.75;5117169;27;20542;-74
2021/12/12 01:25:58;;;;;;;0.13;0.13;;;;;;;-143.85;100.00;70650.75;5117580;27;20056;-77
2021/12/12 01:28:27;;;;;;;0.20;0.20;;;;;;;-143.85;100.00;70650.75;5117891;27;20028;-75
2021/12/12 01:30:57;;;;;;;0.47;0.47;;;;;;;-143.85;100.00;70650.75;5117269;27;20110;-73
2021/12/12 01:33:36;;;;;;;2.05;1.33;;;;;;;-143.85;100.00;70650.75;5117025;27;20024;-73
2021/12/12 01:36:01;;;;;;;0.20;0.20;;;;;;;-143.85;100.00;70650.75;5117224;27;20471;-76
2021/12/12 01:41:12;;;;;;;0.30;0.30;;;;;;;-143.85;100.00;70650.75;5135672;27;20089;-79
2021/12/12 01:43:45;;;;;;;0.20;0.20;;;;;;;-143.85;100.00;70650.75;5117196;27;20110;-75
2021/12/12 01:46:25;;;;;;;0.13;0.13;;;;;;;-143.85;100.00;70650.75;5117084;27;20119;-76
2021/12/12 01:48:50;;;;;;;0.55;0.52;;;;;;;-143.85;100.00;70650.75;5117052;27;20027;-76
2021/12/12 01:51:17;;;;;;;0.30;0.30;;;;;;;-143.85;100.00;70650.75;5116515;27;20052;-77
2021/12/12 01:53:46;;;;;;;0.30;0.30;;;;;;;-143.85;100.00;70650.75;5117501;27;20019;-74
2021/12/12 01:56:22;;;;;;;0.10;0.10;;;;;;;-143.85;100.00;70650.75;5117138;27;20066;-74
2021/12/12 01:58:52;;;;;;;0.95;0.95;;;;;;;-143.85;100.00;70650.75;5117448;27;20035;-77
2021/12/12 02:01:21;;;;;;;0.10;0.10;;;;;;;-143.85;100.00;70650.75;5116832;27;20031;-75
2021/12/12 02:03:52;;;;;;;0.40;0.40;;;;;;;-143.85;100.00;70650.75;5117238;27;20023;-75
2021/12/12 02:06:22;;;;;;;0.10;0.10;;;;;;;-143.85;100.00;70650.75;5116654;27;20027;-75
2021/12/12 02:08:50;;;;;;;0.63;0.63;;;;;;;-143.85;100.00;70650.75;5116753;27;20500;-74
2021/12/12 02:11:22;;;;;;;0.45;0.45;;;;;;;-143.85;100.00;70650.75;5116234;27;20062;-76
2021/12/12 02:13:51;;;;;;;0.30;0.30;;;;;;;-143.85;100.00;70650.75;5116788;27;20532;-74
2021/12/12 02:16:19;;;;;;;0.28;0.28;;;;;;;-143.85;100.00;70650.75;5116356;27;20037;-74
2021/12/12 02:18:49;;;;;;;1.13;0.75;;;;;;;-143.85;100.00;70650.75;5116296;27;20058;-75
2021/12/12 02:22:02;;;;;;;0.20;0.20;;;;;;;-143.85;100.00;70650.75;5116390;27;20024;-75
2021/12/12 02:35:42;;;;;;;0.20;0.20;;;;;;;-143.85;100.00;70650.75;5134358;27;20521;-76
2021/12/12 02:38:10;;;;;;;0.20;0.20;;;;;;;-143.85;100.00;70650.75;5116344;27;20391;-77
2021/12/12 02:40:43;;;;;;;0.63;0.63;;;;;;;-143.85;100.00;70650.75;5115797;27;20031;-74
2021/12/12 02:43:11;;;;;;;0.20;0.20;;;;;;;-143.85;100.00;70650.75;5116261;27;20027;-75
2021/12/12 02:45:37;;;;;;;0.20;0.20;;;;;;;-143.85;100.00;70650.75;5116063;27;20027;-76
2021/12/12 02:48:06;;;;;;;0.20;0.20;;;;;;;-143.85;100.00;70650.75;5116103;27;20027;-74
2021/12/12 02:50:37;;;;;;;0.20;0.20;;;;;;;-143.85;100.00;70650.75;5115993;27;20035;-77
2021/12/12 02:53:08;;;;;;;0.68;0.68;;;;;;;-143.85;100.00;70650.75;5115680;27;20034;-74
2021/12/12 02:55:37;;;;;;;0.20;0.20;;;;;;;-143.85;100.00;70650.75;5116719;27;20451;-74
2021/12/12 02:58:05;;;;;;;0.13;0.13;;;;;;;-143.85;100.00;70650.75;5115633;27;20015;-74
2021/12/12 03:00:37;;;;;;;0.20;0.20;;;;;;;-143.85;100.00;70650.75;5116269;27;20062;-75
2021/12/12 03:03:03;;;;;;;0.17;0.17;;;;;;;-143.85;100.00;70650.75;5115876;27;20403;-76
2021/12/12 03:05:41;;;;;;;0.20;0.20;;;;;;;-143.85;100.00;70650.75;5115440;27;20100;-75
2021/12/12 03:08:07;;;;;;;0.25;0.25;;;;;;;-143.85;100.00;70650.75;5115720;27;20409;-74
2021/12/12 03:10:37;;;;;;;0.77;0.77;;;;;;;-143.85;100.00;70650.75;5115569;27;20035;-77
2021/12/12 03:13:05;;;;;;;0.20;0.20;;;;;;;-143.85;100.00;70650.75;5116036;27;20023;-75
2021/12/12 03:15:34;;;;;;;0.20;0.20;;;;;;;-143.85;100.00;70650.75;5115604;28;20118;-77
2021/12/12 03:18:02;;;;;;;0.20;0.20;;;;;;;-143.85;100.00;70650.75;5115392;27;20058;-75
2021/12/12 03:20:33;;;;;;;0.10;0.10;;;;;;;-143.85;100.00;70650.75;5116147;27;20027;-74
2021/12/12 03:23:20;;;;;;;0.50;0.50;;;;;;;-143.85;100.00;70650.75;5115694;27;20030;-75
2021/12/12 03:25:48;;;;;;;0.20;0.20;;;;;;;-143.85;100.00;70650.75;5115140;27;20034;-78
2021/12/12 03:28:18;;;;;;;0.22;0.22;;;;;;;-143.85;100.00;70650.75;5115714;27;20023;-74
2021/12/12 03:30:45;;;;;;;0.30;0.30;;;;;;;-143.85;100.00;70650.75;5115422;28;20030;-78
2021/12/12 03:33:11;;;;;;;0.65;0.65;;;;;;;-143.85;100.00;70650.75;5115912;28;20063;-77
2021/12/12 03:35:37;;;;;;;0.20;0.20;;;;;;;-143.85;100.00;70650.75;5115216;28;20587;-78
2021/12/12 03:38:05;;;;;;;0.57;0.43;;;;;;;-143.85;100.00;70650.75;5115095;27;20050;-74
2021/12/12 03:40:38;;;;;;;3.38;0.32;;;;;;;-143.85;100.00;70650.75;5114771;28;20027;-76
2021/12/12 03:43:06;;;;;;;0.30;0.30;;;;;;;-143.85;100.00;70650.75;5115019;28;20068;-76
2021/12/12 03:45:33;;;;;;;0.10;0.10;;;;;;;-143.85;100.00;70650.75;5115433;28;20030;-77
2021/12/12 03:48:34;;;;;;;0.20;0.20;;;;;;;-143.85;100.00;70650.75;5115877;28;20443;-75
2021/12/12 03:51:04;;;;;;;1.45;0.85;;;;;;;-143.85;100.00;70650.75;5070344;28;20122;-75
2021/12/12 03:53:31;;;;;;;0.22;0.22;;;;;;;-143.85;100.00;70650.75;5115795;28;20087;-74
2021/12/12 03:55:58;;;;;;;0.30;0.30;;;;;;;-143.85;100.00;70650.75;5115035;28;20020;-75
2021/12/12 03:58:24;;;;;;;0.17;0.17;;;;;;;-143.85;100.00;70650.75;5115258;28;20038;-73
2021/12/12 04:00:58;;;;;;;0.47;0.47;;;;;;;-143.85;100.00;70650.75;5114916;28;20023;-76
2021/12/12 04:03:24;;;;;;;0.20;0.20;;;;;;;-143.85;100.00;70650.75;5115071;28;20023;-77
2021/12/12 04:05:59;;;;;;;0.20;0.20;;;;;;;-143.85;100.00;70650.75;5115672;28;20027;-78
2021/12/12 04:08:31;;;;;;;0.30;0.30;;;;;;;-143.85;100.00;70650.75;5115265;28;20027;-78
2021/12/12 04:10:57;;;;;;;0.30;0.30;;;;;;;-143.85;100.00;70650.75;5115622;28;20024;-74
2021/12/12 04:13:24;;;;;;;0.20;0.20;;;;;;;-143.85;100.00;70650.75;5116125;27;20038;-75
2021/12/12 04:15:54;;;;;;;2.40;0.60;;;;;;;-143.85;100.00;70650.75;5119044;27;20127;-74
2021/12/12 04:18:26;;;;;;;0.10;0.10;;;;;;;-143.85;100.00;70650.75;5119691;27;20031;-75
2021/12/12 04:20:52;;;;;;;0.15;0.15;;;;;;;-143.85;100.00;70650.75;5119551;27;20071;-78
2021/12/12 04:23:23;;;;;;;0.20;0.20;;;;;;;-143.85;100.00;70650.75;5118679;27;20027;-75
2021/12/12 04:25:49;;;;;;;0.20;0.20;;;;;;;-143.85;100.00;70650.75;5118935;27;20023;-75
2021/12/12 04:28:15;;;;;;;0.20;0.20;;;;;;;-143.85;100.00;70650.75;5118396;27;20392;-75
2021/12/12 04:30:41;;;;;;;2.20;0.30;;;;;;;-143.85;100.00;70650.75;5119215;27;20027;-76
2021/12/12 04:33:07;;;;;;;0.15;0.15;;;;;;;-143.85;100.00;70650.75;5119368;27;20023;-75
2021/12/12 04:35:33;;;;;;;0.20;0.20;;;;;;;-143.85;100.00;70650.75;5118934;27;20092;-77
2021/12/12 04:38:00;;;;;;;0.25;0.25;;;;;;;-143.85;100.00;70650.75;5118283;27;20023;-76
2021/12/12 04:40:30;;;;;;;0.15;0.15;;;;;;;-143.85;100.00;70650.75;5118375;27;20114;-77
2021/12/12 04:42:57;;;;;;;0.20;0.20;;;;;;;-143.85;100.00;70650.75;5118182;27;20055;-78
2021/12/12 04:45:49;;;;;;;0.30;0.30;;;;;;;-143.85;100.00;70650.75;5118849;27;20035;-77
2021/12/12 04:51:29;;;;;;;0.20;0.20;;;;;;;-143.85;100.00;70650.75;5137052;27;20046;-78
2021/12/12 04:54:07;;;;;;;0.20;0.20;;;;;;;-143.85;100.00;70650.75;5119082;27;20103;-75
2021/12/12 04:56:45;;;;;;;0.22;0.22;;;;;;;-143.85;100.00;70650.75;5118316;27;20039;-75
2021/12/12 04:59:25;;;;;;;0.95;0.90;;;;;;;-143.85;100.00;70650.75;5119078;27;20019;-76
2021/12/12 05:02:01;;;;;;;0.20;0.20;;;;;;;-143.85;100.00;70650.75;5119075;27;20432;-76
2021/12/12 05:04:35;;;;;;;0.38;0.38;;;;;;;-143.85;100.00;70650.75;5118145;27;20035;-75
2021/12/12 05:07:08;;;;;;;0.10;0.10;;;;;;;-143.85;100.00;70650.75;5118739;27;20034;-75
2021/12/12 05:09:50;;;;;;;0.93;0.85;;;;;;;-143.85;100.00;70650.75;5118502;27;20463;-75
2021/12/12 05:12:32;;;;;;;0.30;0.30;;;;;;;-143.85;100.00;70650.75;5118734;27;20035;-74
2021/12/12 05:15:02;;;;;;;0.30;0.30;;;;;;;-143.85;100.00;70650.75;5118452;27;20371;-73
2021/12/12 05:17:48;;;;;;;0.22;0.22;;;;;;;-143.85;100.00;70650.75;5117964;27;20031;-73
2021/12/12 05:20:21;;;;;;;0.20;0.20;;;;;;;-143.85;100.00;70650.75;5117861;27;20023;-75
2021/12/12 05:22:53;;;;;;;0.30;0.30;;;;;;;-143.85;100.00;70650.75;5118157;27;20451;-78
2021/12/12 05:25:23;;;;;;;0.45;0.45;;;;;;;-143.85;100.00;70650.75;5117144;27;20027;-75
2021/12/12 05:27:51;;;;;;;0.30;0.30;;;;;;;-143.85;100.00;70650.75;5117245;27;20080;-79
2021/12/12 05:30:20;;;;;;;1.00;1.00;;;;;;;-143.85;100.00;70650.75;5117411;27;20104;-73
2021/12/12 05:32:49;;;;;;;0.60;0.50;;;;;;;-143.85;100.00;70650.75;5117383;27;20448;-80
2021/12/12 05:35:17;;;;;;;0.88;0.88;;;;;;;-143.85;100.00;70650.75;5117824;27;20023;-77
2021/12/12 05:37:48;;;;;;;0.35;0.35;;;;;;;-143.85;100.00;70650.75;5117209;27;20027;-75
2021/12/12 05:40:14;;;;;;;0.63;0.63;;;;;;;-143.85;100.00;70650.75;5117318;27;20019;-75
2021/12/12 05:42:40;;;;;;;0.20;0.20;;;;;;;-143.85;100.00;70650.75;5117335;27;20085;-74
2021/12/12 05:45:08;;;;;;;1.85;1.75;;;;;;;-143.85;100.00;70650.75;5117316;27;20458;-78
2021/12/12 05:47:35;;;;;;;0.20;0.20;;;;;;;-143.85;100.00;70650.75;5117415;27;20110;-74
2021/12/12 05:50:03;;;;;;;0.45;0.45;;;;;;;-143.85;100.00;70650.75;5117842;27;20023;-74
2021/12/12 05:52:29;;;;;;;0.73;0.73;;;;;;;-143.85;100.00;70650.75;5116772;27;20030;-77
2021/12/12 05:54:54;;;;;;;0.57;0.57;;;;;;;-143.85;100.00;70650.75;5116947;27;20035;-77
2021/12/12 05:57:25;;;;;;;0.30;0.30;;;;;;;-143.85;100.00;70650.75;5117078;27;20031;-76
2021/12/12 05:59:53;;;;;;;0.38;0.38;;;;;;;-143.85;100.00;70650.75;5116914;27;20091;-75
2021/12/12 06:02:19;;;;;;;0.20;0.20;;;;;;;-143.85;100.00;70650.75;5116974;27;20042;-74
2021/12/12 06:04:45;;;;;;;1.02;0.98;;;;;;;-143.85;100.00;70650.75;5116903;27;20171;-73
2021/12/12 06:07:20;;;;;;;0.73;0.73;;;;;;;-143.85;100.00;70650.75;5116787;27;20067;-77
2021/12/12 06:09:47;;;;;;;0.43;0.43;;;;;;;-143.85;100.00;70650.75;5116959;27;20027;-77
2021/12/12 06:12:14;;;;;;;0.43;0.40;;;;;;;-143.85;100.00;70650.75;5116788;27;20027;-77
2021/12/12 06:14:40;;;;;;;0.22;0.22;;;;;;;-143.85;100.00;70650.75;5116849;27;20035;-76
2021/12/12 06:17:08;;;;;;;0.43;0.43;;;;;;;-143.85;100.00;70650.75;5116485;27;20121;-75
2021/12/12 06:19:34;;;;;;;0.25;0.25;;;;;;;-143.85;100.00;70650.75;5116687;27;20041;-74
2021/12/12 06:22:01;;;;;;;0.60;0.60;;;;;;;-143.85;100.00;70650.75;5116410;27;20403;-79
2021/12/12 06:24:28;;;;;;;0.52;0.52;;;;;;;-143.85;100.00;70650.75;5116490;27;20399;-75
2021/12/12 06:27:01;;;;;;;0.57;0.57;;;;;;;-143.85;100.00;70650.75;5116158;27;20034;-75
2021/12/12 06:29:27;;;;;;;0.30;0.30;;;;;;;-143.85;100.00;70650.75;5113766;28;20114;-77
2021/12/12 06:31:52;;;;;;;0.57;0.57;;;;;;;-143.85;100.00;70650.75;5095807;28;20122;-76
2021/12/12 06:34:18;;;;;;;0.28;0.28;;;;;;;-143.85;100.00;70650.75;5095910;28;20571;-75
2021/12/12 06:36:46;;;;;;;1.20;0.80;;;;;;;-143.85;100.00;70650.75;5112029;28;20126;-75
2021/12/12 06:39:14;;;;;;;0.43;0.43;;;;;;;-143.85;100.00;70650.75;5099594;27;20016;-75
2021/12/12 06:41:40;;;;;;;0.38;0.38;;;;;;;-143.85;100.00;70650.75;5116022;27;20055;-75
2021/12/12 06:44:09;;;;;;;0.20;0.20;;;;;;;-143.85;100.00;70650.75;5115744;27;20020;-77
2021/12/12 06:46:37;;;;;;;0.20;0.20;;;;;;;-143.85;100.00;70650.75;5116321;27;20027;-76
2021/12/12 06:49:05;;;;;;;0.30;0.30;;;;;;;-143.85;100.00;70650.75;5116295;27;20106;-77
2021/12/12 06:51:35;;;;;;;0.63;0.63;;;;;;;-143.85;100.00;70650.75;5116009;27;20027;-76
2021/12/12 06:54:01;;;;;;;0.20;0.20;;;;;;;-143.85;100.00;70650.75;5116270;27;20023;-76
2021/12/12 06:56:28;;;;;;;0.10;0.10;;;;;;;-143.85;100.00;70650.75;5116048;27;20045;-76
2021/12/12 06:58:57;;;;;;;0.25;0.25;;;;;;;-143.85;100.00;70650.75;5115942;27;20023;-77
2021/12/12 07:01:27;;;;;;;0.30;0.30;;;;;;;-143.85;100.00;70650.75;5115910;27;20027;-79
2021/12/12 07:03:54;;;;;;;0.45;0.45;;;;;;;-143.85;100.00;70650.75;5115795;27;20095;-75
2021/12/12 07:06:24;;;;;;;0.32;0.32;;;;;;;-143.85;100.00;70650.75;5115774;27;20047;-75
2021/12/12 07:08:51;;;;;;;0.35;0.35;;;;;;;-143.85;100.00;70650.75;5115534;27;20023;-76
2021/12/12 07:11:22;;;;;;;0.70;0.70;;;;;;;-143.85;100.00;70650.75;5115908;27;20027;-75
2021/12/12 07:13:50;;;;;;;3.08;0.85;;;;;;;-143.85;100.00;70650.75;5115576;27;20054;-76
2021/12/12 07:16:17;;;;;;;0.20;0.20;;;;;;;-143.85;100.00;70650.75;5116204;27;20035;-76
2021/12/12 07:18:44;;;;;;;0.20;0.20;;;;;;;-143.85;100.00;70650.75;5132482;27;20031;-78
2021/12/12 07:21:13;;;;;;;0.60;0.57;;;;;;;-143.85;100.00;70650.75;5114937;28;20027;-77
2021/12/12 07:23:40;;;;;;;0.40;0.40;;;;;;;-143.85;100.00;70650.75;5114946;27;20015;-77
2021/12/12 07:26:08;;;;;;;0.25;0.25;;;;;;;-143.85;100.00;70650.75;5115114;27;20171;-77
2021/12/12 07:28:40;;;;;;;0.40;0.40;;;;;;;-143.85;100.00;70650.75;5115439;28;20023;-75
2021/12/12 07:31:18;;;;;;;0.98;0.63;;;;;;;-143.85;100.00;70650.75;5114207;27;20069;-75
2021/12/12 07:33:47;;;;;;;1.02;1.02;;;;;;;-143.85;100.00;70650.75;5114673;28;20034;-75
2021/12/12 07:36:12;;;;;;;1.08;0.98;;;;;;;-143.85;100.00;70650.75;5114753;28;20475;-75
2021/12/12 07:38:43;;;;;;;0.73;0.73;;;;;;;-143.85;100.00;70650.75;5114779;28;20048;-74
2021/12/12 07:41:10;;;;;;;0.20;0.20;;;;;;;-143.85;100.00;70650.75;5113633;28;20055;-78
2021/12/12 07:43:36;;;;;;;0.20;0.20;;;;;;;-143.85;100.00;70650.75;5114450;28;20031;-75
2021/12/12 07:46:04;;;;;;;0.60;0.60;;;;;;;-143.85;100.00;70650.75;5114584;28;20035;-78
2021/12/12 07:48:30;;;;;;;0.63;0.63;;;;;;;-143.85;100.00;70650.75;5117441;27;20038;-76
2021/12/12 07:50:56;;;;;;;0.60;0.60;;;;;;;-143.85;100.00;70650.75;5118619;27;20037;-78
2021/12/12 07:53:24;;;;;;;0.93;0.93;;;;;;;-143.85;100.00;70650.75;5119354;27;20023;-75
2021/12/12 07:55:52;;;;;;;1.00;1.00;;;;;;;-143.85;100.00;70650.75;5118652;27;20034;-77
2021/12/12 07:58:18;;;;;;;0.55;0.55;;;;;;;-143.85;100.00;70650.75;5118788;27;20028;-79
2021/12/12 08:00:47;;;;;;;1.27;0.77;;;;;;;-143.85;100.00;70650.75;5118128;27;20067;-80
2021/12/12 08:03:21;;;;;;;0.30;0.30;;;;;;;-143.85;100.00;70650.75;5118365;27;20072;-77
2021/12/12 08:05:47;;;;;;;1.67;0.60;;;;;;;-143.85;100.00;70650.75;5118408;27;20486;-81
2021/12/12 08:08:13;;;;;;;0.82;0.82;;;;;;;-143.85;100.00;70650.75;5118407;27;20030;-77
2021/12/12 08:10:43;;;;;;;0.77;0.77;;;;;;;-143.85;100.00;70650.75;5118114;27;20091;-77
2021/12/12 08:13:10;;;;;;;1.33;0.85;;;;;;;-143.85;100.00;70650.75;5118168;27;20023;-76
2021/12/12 08:15:37;;;;;;;0.85;0.85;;;;;;;-143.85;100.00;70650.75;5118393;27;20031;-78
2021/12/12 08:18:04;;;;;;;1.10;0.95;;;;;;;-143.85;100.00;70650.75;5118556;27;20023;-77
2021/12/12 08:20:30;;;;;;;0.60;0.60;;;;;;;-143.85;100.00;70650.75;5118405;27;20031;-76
2021/12/12 08:22:57;;;;;;;2.60;1.35;;;;;;;-143.85;100.00;70650.75;5118214;27;20522;-77
2021/12/12 08:25:26;;;;;;;5.75;1.65;;;;;;;-143.85;100.00;70650.75;5118429;27;20517;-75
2021/12/12 08:27:53;;;;;;;1.38;1.08;;;;;;;-143.85;100.00;70650.75;5118815;27;20027;-76
2021/12/12 08:30:20;;;;;;;0.77;0.77;;;;;;;-143.85;100.00;70650.75;5118028;27;20031;-77
2021/12/12 08:32:48;;;;;;;1.27;1.25;;;;;;;-143.85;100.00;70650.75;5118788;27;20027;-79
2021/12/12 08:35:16;;;;;;;1.00;0.90;;;;;;;-143.85;100.00;70650.75;5117908;27;20027;-76
2021/12/12 08:37:43;;;;;;;1.55;1.48;;;;;;;-143.85;100.00;70650.75;5118303;27;20117;-77
2021/12/12 08:40:14;;;;;;;0.80;0.80;;;;;;;-143.85;100.00;70650.75;5117842;27;20027;-78
2021/12/12 08:42:40;;;;;;;0.30;0.30;;;;;;;-143.85;100.00;70650.75;5117789;27;20277;-76
2021/12/12 08:45:10;;;;;;;0.30;0.30;;;;;;;-143.85;100.00;70650.75;5117784;27;20031;-79
2021/12/12 08:47:36;;;;;;;3.15;1.08;;;;;;;-143.85;100.00;70650.75;5117791;27;20023;-78
2021/12/12 08:53:24;;;;;;;0.20;0.20;;;;;;;-143.85;100.00;70650.75;5136467;27;20418;-76
2021/12/12 08:55:53;;;;;;;3.38;1.40;;;;;;;-143.85;100.00;70650.75;5117487;27;20027;-79
2021/12/12 08:58:24;;;;;;;0.25;0.25;;;;;;;-143.85;100.00;70650.75;5118008;27;20027;-76
2021/12/12 09:00:57;;;;;;;1.17;1.17;;;;;;;-143.85;100.00;70650.75;5117402;27;20455;-76
2021/12/12 09:03:38;;;;;;;1.15;1.10;;;;;;;-143.85;100.00;70650.75;5117721;27;20023;-79
2021/12/12 09:06:06;;;;;;;1.02;1.02;;;;;;;-143.85;100.00;70650.75;5117840;27;20023;-76
2021/12/12 09:08:50;;;;;;;1.20;1.15;;;;;;;-143.85;100.00;70650.75;5117784;27;20023;-77
2021/12/12 09:11:28;;;;;;;0.43;0.38;;;;;;;-143.85;100.00;70650.75;5118280;27;20019;-79
2021/12/12 09:14:02;;;;;;;0.47;0.47;;;;;;;-143.85;100.00;70650.75;5117911;27;20176;-78
2021/12/12 09:16:41;;;;;;;0.55;0.52;;;;;;;-143.85;100.00;70650.75;5117411;27;20035;-76
2021/12/12 09:19:14;;;;;;;0.20;0.20;;;;;;;-143.85;100.00;70650.75;5118336;27;20031;-76
2021/12/12 09:21:51;;;;;;;0.40;0.40;;;;;;;-143.85;100.00;70650.75;5135730;27;20054;-76
2021/12/12 09:24:45;;;;;;;0.50;0.50;;;;;;;-143.85;100.00;70650.75;5117606;27;20406;-77
2021/12/12 09:27:16;;;;;;;0.30;0.30;;;;;;;-143.85;100.00;70650.75;5117229;27;20027;-74
2021/12/12 09:29:51;;;;;;;0.40;0.40;;;;;;;-143.85;100.00;70650.75;5117301;27;20019;-77
2021/12/12 09:32:39;;;;;;;0.88;0.85;;;;;;;-143.85;100.00;70650.75;5117701;27;20027;-76
2021/12/12 09:35:29;;;;;;;0.20;0.20;;;;;;;-143.85;100.00;70650.75;5097320;28;20031;-75
2021/12/12 09:38:30;;;;;;;1.55;1.45;;;;;;;-143.85;100.00;70650.75;5096828;28;20517;-76
2021/12/12 09:41:23;;;;;;;2.13;2.03;;;;;;;-143.85;100.00;70650.75;5042186;28;20053;-76
2021/12/12 09:44:00;;;;;;;3.80;3.13;;;;;;;-143.85;100.00;70650.75;5096085;28;20483;-77
2021/12/12 09:47:00;;;;;;;32.08;19.30;;;;;;;-143.85;100.00;70650.75;5096577;28;20118;-75
2021/12/12 09:52:46;;;;;;;1.85;1.75;;;;;;;-143.85;100.00;70650.75;5114625;28;20467;-76
2021/12/12 09:55:27;;;;;;;0.40;0.40;;;;;;;-143.85;100.00;70650.75;5096038;28;20048;-77
2021/12/12 09:57:59;;;;;;;0.30;0.30;;;;;;;-143.85;100.00;70650.75;5096711;28;20019;-75
2021/12/12 10:00:32;;;;;;;0.90;0.52;;;;;;;-143.85;100.00;70650.75;5096210;28;20019;-74
2021/12/12 10:03:16;;;;;;;0.32;0.32;;;;;;;-143.85;100.00;70650.75;5096356;28;20035;-77
2021/12/12 10:05:48;;;;;;;0.35;0.35;;;;;;;-143.85;100.00;70650.75;5096558;28;20031;-74
2021/12/12 10:08:50;;;;;;;0.30;0.30;;;;;;;-143.85;100.00;70650.75;5096216;28;20119;-76
2021/12/12 10:11:29;;;;;;;0.43;0.43;;;;;;;-143.85;100.00;70650.75;5090122;28;20038;-77
2021/12/12 10:14:17;;;;;;;8.15;1.23;;;;;;;-143.85;100.00;70650.75;5096417;28;20031;-78
2021/12/12 10:17:04;;;;;;;0.43;0.43;;;;;;;-143.85;100.00;70650.75;5096339;28;20027;-77
2021/12/12 10:19:43;;;;;;;0.63;0.60;;;;;;;-143.85;100.00;70650.75;5095856;28;20502;-77
2021/12/12 10:22:28;;;;;;;1.08;0.60;;;;;;;-143.85;100.00;70650.75;5096360;28;20051;-75
2021/12/12 10:25:09;;;;;;;0.10;0.10;;;;;;;-143.85;100.00;70650.75;5096221;28;20027;-76
2021/12/12 10:28:01;;;;;;;0.20;0.20;;;;;;;-143.85;100.00;70650.75;5095765;28;20030;-77
2021/12/12 10:30:53;;;;;;;0.20;0.20;;;;;;;-143.85;100.00;70650.75;5095634;28;20499;-75
2021/12/12 10:33:26;;;;;;;0.50;0.50;;;;;;;-143.85;100.00;70650.75;5095505;28;20030;-77
2021/12/12 10:36:01;;;;;;;0.30;0.30;;;;;;;-143.85;100.00;70650.75;5095438;28;20027;-76
2021/12/12 10:38:45;;;;;;;0.20;0.20;;;;;;;-143.85;100.00;70650.75;5095658;28;20465;-75
2021/12/12 10:41:30;;;;;;;0.10;0.10;;;;;;;-143.85;100.00;70650.75;5095487;28;20058;-76
2021/12/12 10:44:09;;;;;;;0.20;0.20;;;;;;;-143.85;100.00;70650.75;5095889;28;20034;-75
2021/12/12 10:46:50;;;;;;;0.55;0.55;;;;;;;-143.85;100.00;70650.75;5095309;28;20451;-76
2021/12/12 10:49:19;;;;;;;0.80;0.80;;;;;;;-143.85;100.00;70650.75;5095271;28;20537;-78
2021/12/12 10:51:49;;;;;;;3.83;1.63;;;;;;;-143.85;100.00;70650.75;5095123;28;20061;-77
2021/12/12 10:54:45;;;;;;;0.32;0.32;;;;;;;-143.85;100.00;70650.75;5095470;28;20038;-76
2021/12/12 10:57:19;;;;;;;0.20;0.20;;;;;;;-143.85;100.00;70650.75;5053380;28;20036;-79
2021/12/12 10:59:52;;;;;;;0.43;0.43;;;;;;;-143.85;100.00;70650.75;5095068;28;20368;-79
2021/12/12 11:02:26;;;;;;;0.63;0.45;;;;;;;-143.85;100.00;70650.75;5095422;28;20411;-76
2021/12/12 11:05:00;;;;;;;0.20;0.20;;;;;;;-143.85;100.00;70650.75;5095213;28;20019;-75
2021/12/12 11:07:37;;;;;;;0.45;0.45;;;;;;;-143.85;100.00;70650.75;5095190;28;20054;-74
2021/12/12 11:10:11;;;;;;;0.45;0.45;;;;;;;-143.85;100.00;70650.75;5094557;28;20034;-74
2021/12/12 11:13:01;;;;;;;0.13;0.13;;;;;;;-143.85;100.00;70650.75;5095303;28;20031;-77
2021/12/12 11:15:45;;;;;;;0.30;0.30;;;;;;;-143.85;100.00;70650.75;5094919;28;20483;-77
2021/12/12 11:18:19;;;;;;;0.80;0.80;;;;;;;-143.85;100.00;70650.75;5094739;28;20119;-75
2021/12/12 11:21:03;;;;;;;0.20;0.20;;;;;;;-143.85;100.00;70650.75;5094890;28;20027;-75
2021/12/12 11:23:34;;;;;;;0.60;0.60;;;;;;;-143.85;100.00;70650.75;5094803;28;20031;-73
2021/12/12 11:26:06;;;;;;;0.10;0.10;;;;;;;-143.85;100.00;70650.75;5094731;28;20019;-77
2021/12/12 11:28:43;;;;;;;0.77;0.75;;;;;;;-143.85;100.00;70650.75;5094782;28;20035;-75
2021/12/12 11:31:18;;;;;;;0.52;0.50;;;;;;;-143.85;100.00;70650.75;5095333;28;20097;-74
2021/12/12 11:33:50;;;;;;;0.50;0.50;;;;;;;-143.85;100.00;70650.75;5095053;28;20038;-75
2021/12/12 11:36:21;;;;;;;0.63;0.63;;;;;;;-143.85;100.00;70650.75;5094738;28;20023;-74
2021/12/12 11:38:52;;;;;;;0.20;0.20;;;;;;;-143.85;100.00;70650.75;5094791;28;20028;-77
2021/12/12 11:41:28;;;;;;;0.98;0.98;;;;;;;-143.85;100.00;70650.75;5094312;28;20082;-73
2021/12/12 11:44:07;;;;;;;1.33;1.10;;;;;;;-143.85;100.00;70650.75;5078530;28;20061;-78
2021/12/12 11:47:04;;;;;;;0.40;0.40;;;;;;;-143.85;100.00;70650.75;5094766;28;20131;-77
2021/12/12 11:49:40;;;;;;;;;;;;;;;-143.85;100.00;70650.75;5054384;28;20060;-79
2021/12/12 11:52:10;;;;;;;0.20;0.20;;;;;;;-143.85;100.00;70650.75;5094899;28;19990;-78
2021/12/12 11:55:07;;;;;;;0.73;0.73;;;;;;;-143.85;100.00;70650.75;5094406;28;20097;-75